WBGB Airport Information

Runway Information
Runway 17 Length 9006 ft width 147 ft Elevation 34 ft Threshold N/A Heading 168
Runway 35 Length 9006 ft Width 147 ft Elevation 74 ft Threshold N/A Heading 348
Airport Frequencies
Type ATIS Name ATIS Frequency 127.8 MHZ
Type GND Name GND Frequency 121.8 MHZ
Type TWR Name TWR Frequency 122.3 MHZ
Airport Navaids
Type NDB Name Bintulu Frequency 368 KHZ
Type VOR-DME Name Bintulu Frequency 112600 KHZ
Airport Weather Information & NOTAM
METAR for:WBGB (Bintulu Arpt, SR, MY)
Text:WBGB 291600Z VRB02KT 9999 FEW016 26/25 Q1009
Conditions at:1600 UTC 29 Nov 2023
Temperature: 26.0°C ( 79°F)
Dewpoint: 25.0°C ( 77°F) [RH = 94%]
Pressure (altimeter):29.79 inches Hg (1009.0 mb)
Winds:variable direction winds at 2 MPH (2 knots; 1.0 m/s)
Visibility:6 or more sm (10+ km)
Ceiling:at least 12,000 feet AGL
Clouds:few clouds at 1600 feet AGL
TAF for:WBGB (Bintulu Arpt, SR, MY) issued at 1100 UTC 29 Nov 2023
Text:TAF WBGB 291100Z 2912/3012 16005KT 9999 FEW016
Forecast period:1200 UTC 29 November 2023 to 1200 UTC 30 November 2023
Forecast type:FROM: standard forecast or significant change
Winds:from the SSE (160 degrees) at 6 MPH (5 knots; 2.6 m/s)
Visibility:6 or more sm (10+ km)
Ceiling:at least 12,000 feet AGL
Clouds:few clouds at 1600 feet AGL